sensor_id;sensor_type;location;lat;lon;timestamp;temperature;humidity
41762;DHT22;27441;50.860;0.258;2022-07-23T00:01:20;16.50;99.90
41762;DHT22;27441;50.860;0.258;2022-07-23T00:03:46;16.60;99.90
41762;DHT22;27441;50.860;0.258;2022-07-23T00:06:12;16.50;99.90
41762;DHT22;27441;50.860;0.258;2022-07-23T00:08:38;16.50;99.90
41762;DHT22;27441;50.860;0.258;2022-07-23T00:11:03;16.40;99.90
41762;DHT22;27441;50.860;0.258;2022-07-23T00:13:29;16.40;99.90
41762;DHT22;27441;50.860;0.258;2022-07-23T00:15:55;16.20;99.90
41762;DHT22;27441;50.860;0.258;2022-07-23T00:18:21;16.30;99.90
41762;DHT22;27441;50.860;0.258;2022-07-23T00:20:47;16.30;99.90
41762;DHT22;27441;50.860;0.258;2022-07-23T00:23:13;16.20;99.90
41762;DHT22;27441;50.860;0.258;2022-07-23T00:25:39;16.30;99.90
41762;DHT22;27441;50.860;0.258;2022-07-23T00:28:05;16.30;99.90
41762;DHT22;27441;50.860;0.258;2022-07-23T00:30:32;16.30;99.90
41762;DHT22;27441;50.860;0.258;2022-07-23T00:33:04;16.40;99.90
41762;DHT22;27441;50.860;0.258;2022-07-23T00:35:32;16.30;99.90
41762;DHT22;27441;50.860;0.258;2022-07-23T00:37:59;16.30;99.90
41762;DHT22;27441;50.860;0.258;2022-07-23T00:40:25;16.30;99.90
41762;DHT22;27441;50.860;0.258;2022-07-23T00:42:51;16.20;99.90
41762;DHT22;27441;50.860;0.258;2022-07-23T00:45:17;16.20;99.90
41762;DHT22;27441;50.860;0.258;2022-07-23T00:47:43;16.20;99.90
41762;DHT22;27441;50.860;0.258;2022-07-23T00:50:09;16.10;99.90
41762;DHT22;27441;50.860;0.258;2022-07-23T00:52:36;16.10;99.90
41762;DHT22;27441;50.860;0.258;2022-07-23T00:55:03;16.10;99.90
41762;DHT22;27441;50.860;0.258;2022-07-23T00:57:29;16.00;99.90
41762;DHT22;27441;50.860;0.258;2022-07-23T00:59:55;16.00;99.90
41762;DHT22;27441;50.860;0.258;2022-07-23T01:02:21;16.00;99.90
41762;DHT22;27441;50.860;0.258;2022-07-23T01:04:47;16.10;99.90
41762;DHT22;27441;50.860;0.258;2022-07-23T01:07:13;16.10;99.90
41762;DHT22;27441;50.860;0.258;2022-07-23T01:09:39;16.00;99.90
41762;DHT22;27441;50.860;0.258;2022-07-23T01:12:06;15.90;99.90
41762;DHT22;27441;50.860;0.258;2022-07-23T01:14:32;15.90;99.90
41762;DHT22;27441;50.860;0.258;2022-07-23T01:16:58;15.90;99.90
41762;DHT22;27441;50.860;0.258;2022-07-23T01:19:23;16.00;99.90
41762;DHT22;27441;50.860;0.258;2022-07-23T01:21:50;15.90;99.90
41762;DHT22;27441;50.860;0.258;2022-07-23T01:24:17;15.80;99.90
41762;DHT22;27441;50.860;0.258;2022-07-23T01:26:48;15.70;99.90
41762;DHT22;27441;50.860;0.258;2022-07-23T01:29:14;15.70;99.90
41762;DHT22;27441;50.860;0.258;2022-07-23T01:31:40;15.60;99.90
41762;DHT22;27441;50.860;0.258;2022-07-23T01:34:06;15.60;99.90
41762;DHT22;27441;50.860;0.258;2022-07-23T01:36:33;15.60;99.90
41762;DHT22;27441;50.860;0.258;2022-07-23T01:38:59;15.50;99.90
41762;DHT22;27441;50.860;0.258;2022-07-23T01:41:25;15.60;99.90
41762;DHT22;27441;50.860;0.258;2022-07-23T01:43:51;15.60;99.90
41762;DHT22;27441;50.860;0.258;2022-07-23T01:46:17;15.60;99.90
41762;DHT22;27441;50.860;0.258;2022-07-23T01:48:42;15.60;99.90
41762;DHT22;27441;50.860;0.258;2022-07-23T01:51:08;15.70;99.90
41762;DHT22;27441;50.860;0.258;2022-07-23T01:53:34;15.70;99.90
41762;DHT22;27441;50.860;0.258;2022-07-23T01:56:01;15.70;99.90
41762;DHT22;27441;50.860;0.258;2022-07-23T01:58:27;15.70;99.90
41762;DHT22;27441;50.860;0.258;2022-07-23T02:00:54;15.80;99.90
41762;DHT22;27441;50.860;0.258;2022-07-23T02:03:20;15.90;99.90
41762;DHT22;27441;50.860;0.258;2022-07-23T02:05:45;15.90;99.90
41762;DHT22;27441;50.860;0.258;2022-07-23T02:08:11;15.90;99.90
41762;DHT22;27441;50.860;0.258;2022-07-23T02:10:37;16.00;99.90
41762;DHT22;27441;50.860;0.258;2022-07-23T02:13:03;16.00;99.90
41762;DHT22;27441;50.860;0.258;2022-07-23T02:15:29;16.00;99.90
41762;DHT22;27441;50.860;0.258;2022-07-23T02:17:55;15.90;99.90
41762;DHT22;27441;50.860;0.258;2022-07-23T02:20:21;16.00;99.90
41762;DHT22;27441;50.860;0.258;2022-07-23T02:22:48;16.00;99.90
41762;DHT22;27441;50.860;0.258;2022-07-23T02:25:14;16.00;99.90
41762;DHT22;27441;50.860;0.258;2022-07-23T02:27:40;16.10;99.90
41762;DHT22;27441;50.860;0.258;2022-07-23T02:30:06;16.10;99.90
41762;DHT22;27441;50.860;0.258;2022-07-23T02:32:33;16.10;99.90
41762;DHT22;27441;50.860;0.258;2022-07-23T02:34:59;16.10;99.90
41762;DHT22;27441;50.860;0.258;2022-07-23T02:37:25;16.10;99.90
41762;DHT22;27441;50.860;0.258;2022-07-23T02:39:51;16.00;99.90
41762;DHT22;27441;50.860;0.258;2022-07-23T02:42:17;16.10;99.90
41762;DHT22;27441;50.860;0.258;2022-07-23T02:44:44;16.20;99.90
41762;DHT22;27441;50.860;0.258;2022-07-23T02:47:10;16.20;99.90
41762;DHT22;27441;50.860;0.258;2022-07-23T02:49:35;16.10;99.90
41762;DHT22;27441;50.860;0.258;2022-07-23T02:52:02;16.10;99.90
41762;DHT22;27441;50.860;0.258;2022-07-23T02:54:27;16.10;99.90
41762;DHT22;27441;50.860;0.258;2022-07-23T02:56:53;16.10;99.90
41762;DHT22;27441;50.860;0.258;2022-07-23T02:59:19;16.20;99.90
41762;DHT22;27441;50.860;0.258;2022-07-23T03:01:45;16.20;99.90
41762;DHT22;27441;50.860;0.258;2022-07-23T03:04:11;16.30;99.90
41762;DHT22;27441;50.860;0.258;2022-07-23T03:06:37;16.20;99.90
41762;DHT22;27441;50.860;0.258;2022-07-23T03:09:04;16.10;99.90
41762;DHT22;27441;50.860;0.258;2022-07-23T03:11:30;16.00;99.90
41762;DHT22;27441;50.860;0.258;2022-07-23T03:13:56;15.90;99.90
41762;DHT22;27441;50.860;0.258;2022-07-23T03:16:22;15.90;99.90
41762;DHT22;27441;50.860;0.258;2022-07-23T03:18:47;15.90;99.90
41762;DHT22;27441;50.860;0.258;2022-07-23T03:21:13;15.90;99.90
41762;DHT22;27441;50.860;0.258;2022-07-23T03:23:39;15.90;99.90
41762;DHT22;27441;50.860;0.258;2022-07-23T03:26:05;15.90;99.90
41762;DHT22;27441;50.860;0.258;2022-07-23T03:28:31;15.90;99.90
41762;DHT22;27441;50.860;0.258;2022-07-23T03:30:57;15.90;99.90
41762;DHT22;27441;50.860;0.258;2022-07-23T03:33:23;15.80;99.90
41762;DHT22;27441;50.860;0.258;2022-07-23T03:35:49;15.90;99.90
41762;DHT22;27441;50.860;0.258;2022-07-23T03:38:15;15.90;99.90
41762;DHT22;27441;50.860;0.258;2022-07-23T03:40:41;15.80;99.90
41762;DHT22;27441;50.860;0.258;2022-07-23T03:43:07;15.70;99.90
41762;DHT22;27441;50.860;0.258;2022-07-23T03:45:33;15.60;99.90
41762;DHT22;27441;50.860;0.258;2022-07-23T03:47:59;15.60;99.90
41762;DHT22;27441;50.860;0.258;2022-07-23T03:50:25;15.50;99.90
41762;DHT22;27441;50.860;0.258;2022-07-23T03:52:52;15.50;99.90
41762;DHT22;27441;50.860;0.258;2022-07-23T03:55:18;15.40;99.90
41762;DHT22;27441;50.860;0.258;2022-07-23T03:57:44;15.40;99.90
41762;DHT22;27441;50.860;0.258;2022-07-23T04:00:10;15.40;99.90
41762;DHT22;27441;50.860;0.258;2022-07-23T04:02:38;15.30;99.90
41762;DHT22;27441;50.860;0.258;2022-07-23T04:05:04;15.30;99.90
41762;DHT22;27441;50.860;0.258;2022-07-23T04:07:30;15.30;99.90
41762;DHT22;27441;50.860;0.258;2022-07-23T04:09:56;15.40;99.90
41762;DHT22;27441;50.860;0.258;2022-07-23T04:12:22;15.30;99.90
41762;DHT22;27441;50.860;0.258;2022-07-23T04:14:48;15.20;99.90
41762;DHT22;27441;50.860;0.258;2022-07-23T04:17:13;15.20;99.90
41762;DHT22;27441;50.860;0.258;2022-07-23T04:19:39;15.00;99.90
41762;DHT22;27441;50.860;0.258;2022-07-23T04:22:10;15.00;99.90
41762;DHT22;27441;50.860;0.258;2022-07-23T04:24:37;15.00;99.90
41762;DHT22;27441;50.860;0.258;2022-07-23T04:27:03;15.00;99.90
41762;DHT22;27441;50.860;0.258;2022-07-23T04:29:29;15.10;99.90
41762;DHT22;27441;50.860;0.258;2022-07-23T04:31:55;15.00;99.90
41762;DHT22;27441;50.860;0.258;2022-07-23T04:34:21;15.00;99.90
41762;DHT22;27441;50.860;0.258;2022-07-23T04:36:47;15.10;99.90
41762;DHT22;27441;50.860;0.258;2022-07-23T04:39:13;15.10;99.90
41762;DHT22;27441;50.860;0.258;2022-07-23T04:41:39;15.10;99.90
41762;DHT22;27441;50.860;0.258;2022-07-23T04:44:04;15.10;99.90
41762;DHT22;27441;50.860;0.258;2022-07-23T04:46:30;15.10;99.90
41762;DHT22;27441;50.860;0.258;2022-07-23T04:48:56;15.00;99.90
41762;DHT22;27441;50.860;0.258;2022-07-23T04:51:22;15.00;99.90
41762;DHT22;27441;50.860;0.258;2022-07-23T04:53:48;15.00;99.90
41762;DHT22;27441;50.860;0.258;2022-07-23T04:56:13;15.00;99.90
41762;DHT22;27441;50.860;0.258;2022-07-23T04:58:39;15.10;99.90
41762;DHT22;27441;50.860;0.258;2022-07-23T05:01:05;15.10;99.90
41762;DHT22;27441;50.860;0.258;2022-07-23T05:03:31;15.20;99.90
41762;DHT22;27441;50.860;0.258;2022-07-23T05:05:57;15.20;99.90
41762;DHT22;27441;50.860;0.258;2022-07-23T05:08:22;15.20;99.90
41762;DHT22;27441;50.860;0.258;2022-07-23T05:10:48;15.20;99.90
41762;DHT22;27441;50.860;0.258;2022-07-23T05:13:15;15.30;99.90
41762;DHT22;27441;50.860;0.258;2022-07-23T05:15:42;15.40;99.90
41762;DHT22;27441;50.860;0.258;2022-07-23T05:18:07;15.30;99.90
41762;DHT22;27441;50.860;0.258;2022-07-23T05:20:33;15.40;99.90
41762;DHT22;27441;50.860;0.258;2022-07-23T05:22:59;15.40;99.90
41762;DHT22;27441;50.860;0.258;2022-07-23T05:25:25;15.50;99.90
41762;DHT22;27441;50.860;0.258;2022-07-23T05:27:50;15.50;99.90
41762;DHT22;27441;50.860;0.258;2022-07-23T05:30:16;15.50;99.90
41762;DHT22;27441;50.860;0.258;2022-07-23T05:32:42;15.50;99.90
41762;DHT22;27441;50.860;0.258;2022-07-23T05:35:08;15.50;99.90
41762;DHT22;27441;50.860;0.258;2022-07-23T05:37:34;15.60;99.90
41762;DHT22;27441;50.860;0.258;2022-07-23T05:40:07;15.70;99.90
41762;DHT22;27441;50.860;0.258;2022-07-23T05:42:38;15.70;99.90
41762;DHT22;27441;50.860;0.258;2022-07-23T05:45:05;15.70;99.90
41762;DHT22;27441;50.860;0.258;2022-07-23T05:47:45;15.70;99.90
41762;DHT22;27441;50.860;0.258;2022-07-23T05:50:12;15.70;99.90
41762;DHT22;27441;50.860;0.258;2022-07-23T05:52:39;15.80;99.90
41762;DHT22;27441;50.860;0.258;2022-07-23T05:55:06;15.90;99.90
41762;DHT22;27441;50.860;0.258;2022-07-23T05:57:32;16.00;99.90
41762;DHT22;27441;50.860;0.258;2022-07-23T05:59:57;16.10;99.90
41762;DHT22;27441;50.860;0.258;2022-07-23T06:02:23;16.10;99.90
41762;DHT22;27441;50.860;0.258;2022-07-23T06:04:49;16.10;99.90
41762;DHT22;27441;50.860;0.258;2022-07-23T06:07:15;16.10;99.90
41762;DHT22;27441;50.860;0.258;2022-07-23T06:09:40;16.10;99.90
41762;DHT22;27441;50.860;0.258;2022-07-23T06:12:07;16.20;99.90
41762;DHT22;27441;50.860;0.258;2022-07-23T06:14:32;16.20;99.90
41762;DHT22;27441;50.860;0.258;2022-07-23T06:16:58;16.20;99.90
41762;DHT22;27441;50.860;0.258;2022-07-23T06:19:25;16.20;99.90
41762;DHT22;27441;50.860;0.258;2022-07-23T06:21:51;16.30;99.90
41762;DHT22;27441;50.860;0.258;2022-07-23T06:24:17;16.40;99.90
41762;DHT22;27441;50.860;0.258;2022-07-23T06:26:42;16.40;99.90
41762;DHT22;27441;50.860;0.258;2022-07-23T06:29:08;16.50;99.90
41762;DHT22;27441;50.860;0.258;2022-07-23T06:31:34;16.50;99.90
41762;DHT22;27441;50.860;0.258;2022-07-23T06:34:00;16.60;99.90
41762;DHT22;27441;50.860;0.258;2022-07-23T06:36:26;16.70;99.90
41762;DHT22;27441;50.860;0.258;2022-07-23T06:38:52;16.80;99.90
41762;DHT22;27441;50.860;0.258;2022-07-23T06:41:18;16.90;99.90
41762;DHT22;27441;50.860;0.258;2022-07-23T06:43:43;16.90;99.90
41762;DHT22;27441;50.860;0.258;2022-07-23T06:46:09;17.00;99.90
41762;DHT22;27441;50.860;0.258;2022-07-23T06:48:35;17.00;99.90
41762;DHT22;27441;50.860;0.258;2022-07-23T06:51:02;17.10;99.90
41762;DHT22;27441;50.860;0.258;2022-07-23T06:53:28;17.20;99.90
41762;DHT22;27441;50.860;0.258;2022-07-23T06:55:53;17.30;99.90
41762;DHT22;27441;50.860;0.258;2022-07-23T06:58:19;17.40;99.90
41762;DHT22;27441;50.860;0.258;2022-07-23T07:00:46;17.40;99.90
41762;DHT22;27441;50.860;0.258;2022-07-23T07:03:12;17.60;99.90
41762;DHT22;27441;50.860;0.258;2022-07-23T07:05:37;17.60;99.90
41762;DHT22;27441;50.860;0.258;2022-07-23T07:08:05;17.70;99.90
41762;DHT22;27441;50.860;0.258;2022-07-23T07:10:31;17.80;99.90
41762;DHT22;27441;50.860;0.258;2022-07-23T07:12:57;17.90;99.90
41762;DHT22;27441;50.860;0.258;2022-07-23T07:15:23;18.00;99.90
41762;DHT22;27441;50.860;0.258;2022-07-23T07:17:49;18.10;99.90
41762;DHT22;27441;50.860;0.258;2022-07-23T07:20:14;18.20;99.90
41762;DHT22;27441;50.860;0.258;2022-07-23T07:22:40;18.30;99.90
41762;DHT22;27441;50.860;0.258;2022-07-23T07:25:06;18.30;99.90
41762;DHT22;27441;50.860;0.258;2022-07-23T07:27:32;18.50;99.90
41762;DHT22;27441;50.860;0.258;2022-07-23T07:29:58;18.50;99.90
41762;DHT22;27441;50.860;0.258;2022-07-23T07:32:24;18.70;99.90
41762;DHT22;27441;50.860;0.258;2022-07-23T07:34:49;18.80;99.90
41762;DHT22;27441;50.860;0.258;2022-07-23T07:37:15;18.90;99.90
41762;DHT22;27441;50.860;0.258;2022-07-23T07:39:41;19.00;99.90
41762;DHT22;27441;50.860;0.258;2022-07-23T07:42:07;19.10;99.90
41762;DHT22;27441;50.860;0.258;2022-07-23T07:44:32;19.10;99.90
41762;DHT22;27441;50.860;0.258;2022-07-23T07:46:58;19.30;99.90
41762;DHT22;27441;50.860;0.258;2022-07-23T07:49:24;19.30;99.90
41762;DHT22;27441;50.860;0.258;2022-07-23T07:51:50;19.30;99.90
41762;DHT22;27441;50.860;0.258;2022-07-23T07:54:15;19.40;99.90
41762;DHT22;27441;50.860;0.258;2022-07-23T07:56:41;19.50;99.90
41762;DHT22;27441;50.860;0.258;2022-07-23T07:59:07;19.70;99.90
41762;DHT22;27441;50.860;0.258;2022-07-23T08:01:32;19.80;99.90
41762;DHT22;27441;50.860;0.258;2022-07-23T08:03:58;19.90;99.90
41762;DHT22;27441;50.860;0.258;2022-07-23T08:06:24;20.20;99.90
41762;DHT22;27441;50.860;0.258;2022-07-23T08:08:50;20.40;99.90
41762;DHT22;27441;50.860;0.258;2022-07-23T08:11:16;20.50;99.90
41762;DHT22;27441;50.860;0.258;2022-07-23T08:13:41;20.50;99.90
41762;DHT22;27441;50.860;0.258;2022-07-23T08:16:10;20.60;99.90
41762;DHT22;27441;50.860;0.258;2022-07-23T08:18:36;20.70;99.90
41762;DHT22;27441;50.860;0.258;2022-07-23T08:21:01;20.90;99.90
41762;DHT22;27441;50.860;0.258;2022-07-23T08:23:27;21.10;99.90
41762;DHT22;27441;50.860;0.258;2022-07-23T08:25:53;21.30;99.90
41762;DHT22;27441;50.860;0.258;2022-07-23T08:28:19;21.70;99.90
41762;DHT22;27441;50.860;0.258;2022-07-23T08:30:45;21.80;99.90
41762;DHT22;27441;50.860;0.258;2022-07-23T08:33:16;21.90;99.90
41762;DHT22;27441;50.860;0.258;2022-07-23T08:35:44;22.20;99.90
41762;DHT22;27441;50.860;0.258;2022-07-23T08:38:16;22.40;99.90
41762;DHT22;27441;50.860;0.258;2022-07-23T08:40:48;22.70;99.90
41762;DHT22;27441;50.860;0.258;2022-07-23T08:43:23;23.10;99.90
41762;DHT22;27441;50.860;0.258;2022-07-23T08:45:52;23.40;99.90
41762;DHT22;27441;50.860;0.258;2022-07-23T08:48:24;23.40;99.90
41762;DHT22;27441;50.860;0.258;2022-07-23T08:50:51;23.60;99.90
41762;DHT22;27441;50.860;0.258;2022-07-23T08:53:29;23.70;99.90
41762;DHT22;27441;50.860;0.258;2022-07-23T08:55:58;23.80;99.90
41762;DHT22;27441;50.860;0.258;2022-07-23T08:58:25;23.70;99.90
41762;DHT22;27441;50.860;0.258;2022-07-23T09:00:51;23.70;99.90
41762;DHT22;27441;50.860;0.258;2022-07-23T09:03:19;23.80;99.90
41762;DHT22;27441;50.860;0.258;2022-07-23T09:05:46;23.90;99.90
41762;DHT22;27441;50.860;0.258;2022-07-23T09:08:14;24.30;99.90
41762;DHT22;27441;50.860;0.258;2022-07-23T09:13:41;24.50;99.90
41762;DHT22;27441;50.860;0.258;2022-07-23T09:16:24;24.20;99.90
41762;DHT22;27441;50.860;0.258;2022-07-23T09:18:53;23.90;99.90
41762;DHT22;27441;50.860;0.258;2022-07-23T09:21:20;23.60;99.90
41762;DHT22;27441;50.860;0.258;2022-07-23T09:23:54;23.30;99.90
41762;DHT22;27441;50.860;0.258;2022-07-23T09:26:32;23.20;99.90
41762;DHT22;27441;50.860;0.258;2022-07-23T09:29:03;23.20;99.90
41762;DHT22;27441;50.860;0.258;2022-07-23T09:31:55;22.90;99.90
41762;DHT22;27441;50.860;0.258;2022-07-23T09:34:21;22.80;99.90
41762;DHT22;27441;50.860;0.258;2022-07-23T09:36:48;23.30;99.90
41762;DHT22;27441;50.860;0.258;2022-07-23T09:39:16;23.20;99.90
41762;DHT22;27441;50.860;0.258;2022-07-23T09:41:47;23.10;99.90
41762;DHT22;27441;50.860;0.258;2022-07-23T09:44:14;23.10;99.90
41762;DHT22;27441;50.860;0.258;2022-07-23T09:46:41;23.30;99.90
41762;DHT22;27441;50.860;0.258;2022-07-23T09:49:16;23.60;99.90
41762;DHT22;27441;50.860;0.258;2022-07-23T09:54:35;24.30;99.90
41762;DHT22;27441;50.860;0.258;2022-07-23T09:57:10;25.20;99.90
41762;DHT22;27441;50.860;0.258;2022-07-23T09:59:41;25.40;99.90
41762;DHT22;27441;50.860;0.258;2022-07-23T10:02:08;25.50;99.90
41762;DHT22;27441;50.860;0.258;2022-07-23T10:04:35;25.20;99.90
41762;DHT22;27441;50.860;0.258;2022-07-23T10:07:03;25.40;99.90
41762;DHT22;27441;50.860;0.258;2022-07-23T10:09:40;26.30;99.90
41762;DHT22;27441;50.860;0.258;2022-07-23T10:12:14;26.80;99.90
41762;DHT22;27441;50.860;0.258;2022-07-23T10:14:44;27.20;99.90
41762;DHT22;27441;50.860;0.258;2022-07-23T10:17:11;28.00;99.90
41762;DHT22;27441;50.860;0.258;2022-07-23T10:19:37;28.50;99.90
41762;DHT22;27441;50.860;0.258;2022-07-23T10:22:09;28.70;99.90
41762;DHT22;27441;50.860;0.258;2022-07-23T10:32:35;29.50;99.90
41762;DHT22;27441;50.860;0.258;2022-07-23T10:35:38;29.90;99.90
41762;DHT22;27441;50.860;0.258;2022-07-23T10:40:37;30.50;99.90
41762;DHT22;27441;50.860;0.258;2022-07-23T10:43:15;30.80;99.90
41762;DHT22;27441;50.860;0.258;2022-07-23T10:45:42;30.30;99.90
41762;DHT22;27441;50.860;0.258;2022-07-23T10:48:20;30.10;99.90
41762;DHT22;27441;50.860;0.258;2022-07-23T10:51:12;30.10;99.90
41762;DHT22;27441;50.860;0.258;2022-07-23T10:54:09;30.50;99.90
41762;DHT22;27441;50.860;0.258;2022-07-23T10:57:05;30.60;99.90
41762;DHT22;27441;50.860;0.258;2022-07-23T11:02:31;30.70;99.90
41762;DHT22;27441;50.860;0.258;2022-07-23T11:05:14;30.40;99.90
41762;DHT22;27441;50.860;0.258;2022-07-23T11:10:38;30.40;99.90
41762;DHT22;27441;50.860;0.258;2022-07-23T11:16:04;31.70;99.70
41762;DHT22;27441;50.860;0.258;2022-07-23T11:31:59;31.70;99.00
41762;DHT22;27441;50.860;0.258;2022-07-23T11:37:05;32.00;97.50
41762;DHT22;27441;50.860;0.258;2022-07-23T11:39:31;32.10;97.00
41762;DHT22;27441;50.860;0.258;2022-07-23T11:41:59;32.30;96.90
41762;DHT22;27441;50.860;0.258;2022-07-23T11:44:29;32.40;96.60
41762;DHT22;27441;50.860;0.258;2022-07-23T11:46:59;32.10;97.10
41762;DHT22;27441;50.860;0.258;2022-07-23T11:49:26;31.90;97.70
41762;DHT22;27441;50.860;0.258;2022-07-23T11:52:14;32.00;97.10
41762;DHT22;27441;50.860;0.258;2022-07-23T11:54:58;31.80;97.50
41762;DHT22;27441;50.860;0.258;2022-07-23T11:57:29;32.10;97.30
41762;DHT22;27441;50.860;0.258;2022-07-23T12:00:09;31.80;97.40
41762;DHT22;27441;50.860;0.258;2022-07-23T12:02:38;31.30;97.50
41762;DHT22;27441;50.860;0.258;2022-07-23T12:05:04;31.30;97.80
41762;DHT22;27441;50.860;0.258;2022-07-23T12:07:34;31.30;98.00
41762;DHT22;27441;50.860;0.258;2022-07-23T12:10:03;30.80;98.10
41762;DHT22;27441;50.860;0.258;2022-07-23T12:12:41;30.30;99.40
41762;DHT22;27441;50.860;0.258;2022-07-23T12:15:11;29.50;99.90
41762;DHT22;27441;50.860;0.258;2022-07-23T12:17:38;28.70;99.90
41762;DHT22;27441;50.860;0.258;2022-07-23T12:20:07;28.00;99.90
41762;DHT22;27441;50.860;0.258;2022-07-23T12:22:42;27.50;99.90
41762;DHT22;27441;50.860;0.258;2022-07-23T12:27:39;26.50;99.90
41762;DHT22;27441;50.860;0.258;2022-07-23T12:30:24;26.20;99.90
41762;DHT22;27441;50.860;0.258;2022-07-23T12:32:53;25.90;99.90
41762;DHT22;27441;50.860;0.258;2022-07-23T12:35:20;25.70;99.90
41762;DHT22;27441;50.860;0.258;2022-07-23T12:37:47;25.50;99.90
41762;DHT22;27441;50.860;0.258;2022-07-23T12:40:31;25.40;99.90
41762;DHT22;27441;50.860;0.258;2022-07-23T12:43:05;25.40;99.90
41762;DHT22;27441;50.860;0.258;2022-07-23T12:45:49;25.30;99.90
41762;DHT22;27441;50.860;0.258;2022-07-23T12:48:24;25.10;99.90
41762;DHT22;27441;50.860;0.258;2022-07-23T12:55:58;24.90;99.90
41762;DHT22;27441;50.860;0.258;2022-07-23T12:58:25;24.80;99.90
41762;DHT22;27441;50.860;0.258;2022-07-23T13:00:58;24.70;99.90
41762;DHT22;27441;50.860;0.258;2022-07-23T13:03:38;24.60;99.90
41762;DHT22;27441;50.860;0.258;2022-07-23T13:06:08;24.60;99.90
41762;DHT22;27441;50.860;0.258;2022-07-23T13:08:36;24.60;99.90
41762;DHT22;27441;50.860;0.258;2022-07-23T13:11:04;24.60;99.90
41762;DHT22;27441;50.860;0.258;2022-07-23T13:13:32;24.40;99.90
41762;DHT22;27441;50.860;0.258;2022-07-23T13:15:59;24.30;99.90
41762;DHT22;27441;50.860;0.258;2022-07-23T13:18:26;24.20;99.90
41762;DHT22;27441;50.860;0.258;2022-07-23T13:20:53;24.10;99.90
41762;DHT22;27441;50.860;0.258;2022-07-23T13:23:19;24.00;99.90
41762;DHT22;27441;50.860;0.258;2022-07-23T13:25:46;24.00;99.90
41762;DHT22;27441;50.860;0.258;2022-07-23T13:28:12;24.00;99.90
41762;DHT22;27441;50.860;0.258;2022-07-23T13:30:39;23.90;99.90
41762;DHT22;27441;50.860;0.258;2022-07-23T13:33:05;23.90;99.90
41762;DHT22;27441;50.860;0.258;2022-07-23T13:35:35;23.90;99.90
41762;DHT22;27441;50.860;0.258;2022-07-23T13:38:02;24.00;99.90
41762;DHT22;27441;50.860;0.258;2022-07-23T13:40:28;24.00;99.90
41762;DHT22;27441;50.860;0.258;2022-07-23T13:42:54;24.00;99.90
41762;DHT22;27441;50.860;0.258;2022-07-23T13:45:20;24.00;99.90
41762;DHT22;27441;50.860;0.258;2022-07-23T13:47:46;24.00;99.90
41762;DHT22;27441;50.860;0.258;2022-07-23T13:50:11;24.00;99.90
41762;DHT22;27441;50.860;0.258;2022-07-23T13:52:37;23.90;99.90
41762;DHT22;27441;50.860;0.258;2022-07-23T13:55:05;23.70;99.90
41762;DHT22;27441;50.860;0.258;2022-07-23T13:57:32;23.60;99.90
41762;DHT22;27441;50.860;0.258;2022-07-23T13:59:58;23.50;99.90
41762;DHT22;27441;50.860;0.258;2022-07-23T14:02:24;23.50;99.90
41762;DHT22;27441;50.860;0.258;2022-07-23T14:04:50;23.50;99.90
41762;DHT22;27441;50.860;0.258;2022-07-23T14:07:17;23.30;99.90
41762;DHT22;27441;50.860;0.258;2022-07-23T14:09:43;23.30;99.90
41762;DHT22;27441;50.860;0.258;2022-07-23T14:12:08;23.30;99.90
41762;DHT22;27441;50.860;0.258;2022-07-23T14:14:34;23.20;99.90
41762;DHT22;27441;50.860;0.258;2022-07-23T14:17:00;23.10;99.90
41762;DHT22;27441;50.860;0.258;2022-07-23T14:19:26;23.00;99.90
41762;DHT22;27441;50.860;0.258;2022-07-23T14:21:52;23.00;99.90
41762;DHT22;27441;50.860;0.258;2022-07-23T14:24:17;22.90;99.90
41762;DHT22;27441;50.860;0.258;2022-07-23T14:26:43;22.80;99.90
41762;DHT22;27441;50.860;0.258;2022-07-23T14:29:09;22.80;99.90
41762;DHT22;27441;50.860;0.258;2022-07-23T14:31:35;22.80;99.90
41762;DHT22;27441;50.860;0.258;2022-07-23T14:34:01;22.80;99.90
41762;DHT22;27441;50.860;0.258;2022-07-23T14:36:27;22.80;99.90
41762;DHT22;27441;50.860;0.258;2022-07-23T14:38:53;22.80;99.90
41762;DHT22;27441;50.860;0.258;2022-07-23T14:41:19;22.70;99.90
41762;DHT22;27441;50.860;0.258;2022-07-23T14:43:45;22.50;99.90
41762;DHT22;27441;50.860;0.258;2022-07-23T14:46:12;22.40;99.90
41762;DHT22;27441;50.860;0.258;2022-07-23T14:48:38;22.30;99.90
41762;DHT22;27441;50.860;0.258;2022-07-23T14:51:04;22.20;99.90
41762;DHT22;27441;50.860;0.258;2022-07-23T14:53:30;22.20;99.90
41762;DHT22;27441;50.860;0.258;2022-07-23T14:55:56;22.30;99.90
41762;DHT22;27441;50.860;0.258;2022-07-23T14:58:25;22.40;99.90
41762;DHT22;27441;50.860;0.258;2022-07-23T15:00:51;22.40;99.90
41762;DHT22;27441;50.860;0.258;2022-07-23T15:03:17;22.40;99.90
41762;DHT22;27441;50.860;0.258;2022-07-23T15:05:43;22.40;99.90
41762;DHT22;27441;50.860;0.258;2022-07-23T15:08:09;22.40;99.90
41762;DHT22;27441;50.860;0.258;2022-07-23T15:10:34;22.40;99.90
41762;DHT22;27441;50.860;0.258;2022-07-23T15:13:00;22.40;99.90
41762;DHT22;27441;50.860;0.258;2022-07-23T15:15:26;22.40;99.90
41762;DHT22;27441;50.860;0.258;2022-07-23T15:17:55;22.30;99.90
41762;DHT22;27441;50.860;0.258;2022-07-23T15:20:21;22.40;99.90
41762;DHT22;27441;50.860;0.258;2022-07-23T15:22:46;22.50;99.90
41762;DHT22;27441;50.860;0.258;2022-07-23T15:25:13;22.60;99.90
41762;DHT22;27441;50.860;0.258;2022-07-23T15:27:39;22.70;99.90
41762;DHT22;27441;50.860;0.258;2022-07-23T15:30:09;22.70;99.90
41762;DHT22;27441;50.860;0.258;2022-07-23T15:32:35;22.60;99.90
41762;DHT22;27441;50.860;0.258;2022-07-23T15:35:01;22.60;99.90
41762;DHT22;27441;50.860;0.258;2022-07-23T15:37:30;22.60;99.90
41762;DHT22;27441;50.860;0.258;2022-07-23T15:39:56;22.50;99.90
41762;DHT22;27441;50.860;0.258;2022-07-23T15:42:22;22.50;99.90
41762;DHT22;27441;50.860;0.258;2022-07-23T15:44:49;22.40;99.90
41762;DHT22;27441;50.860;0.258;2022-07-23T15:47:15;22.40;99.90
41762;DHT22;27441;50.860;0.258;2022-07-23T15:49:41;22.50;99.90
41762;DHT22;27441;50.860;0.258;2022-07-23T15:52:07;22.40;99.90
41762;DHT22;27441;50.860;0.258;2022-07-23T15:54:35;22.40;99.90
41762;DHT22;27441;50.860;0.258;2022-07-23T15:57:02;22.30;99.90
41762;DHT22;27441;50.860;0.258;2022-07-23T15:59:28;22.50;99.90
41762;DHT22;27441;50.860;0.258;2022-07-23T16:01:54;22.50;99.90
41762;DHT22;27441;50.860;0.258;2022-07-23T16:04:20;22.50;99.90
41762;DHT22;27441;50.860;0.258;2022-07-23T16:06:46;22.60;99.90
41762;DHT22;27441;50.860;0.258;2022-07-23T16:09:12;22.50;99.90
41762;DHT22;27441;50.860;0.258;2022-07-23T16:11:37;22.40;99.90
41762;DHT22;27441;50.860;0.258;2022-07-23T16:14:03;22.40;99.90
41762;DHT22;27441;50.860;0.258;2022-07-23T16:16:29;22.40;99.90
41762;DHT22;27441;50.860;0.258;2022-07-23T16:18:56;22.40;99.90
41762;DHT22;27441;50.860;0.258;2022-07-23T16:21:23;22.50;99.90